createdAt,value
2023-05-22T00:01:26.588Z,55.84
2023-05-22T00:04:30.703Z,56.22
2023-05-22T00:07:34.745Z,56.53
2023-05-22T00:10:38.921Z,56.19
2023-05-22T00:13:44.451Z,56.40
2023-05-22T00:16:49.208Z,56.29
2023-05-22T00:19:53.685Z,56.82
2023-05-22T00:22:58.084Z,56.91
2023-05-22T00:26:02.044Z,56.88
2023-05-22T00:29:07.359Z,56.68
2023-05-22T00:32:11.394Z,56.52
2023-05-22T00:35:15.179Z,56.73
2023-05-22T00:38:33.732Z,57.64
2023-05-22T00:41:38.678Z,57.32
2023-05-22T00:44:44.048Z,56.91
2023-05-22T00:47:47.975Z,57.55
2023-05-22T00:50:53.410Z,57.26
2023-05-22T00:53:58.193Z,57.04
2023-05-22T00:57:03.625Z,57.22
2023-05-22T01:00:12.112Z,57.64
2023-05-22T01:03:16.855Z,58.27
2023-05-22T01:06:21.816Z,58.02
2023-05-22T01:09:26.228Z,58.05
2023-05-22T01:12:40.127Z,58.40
2023-05-22T01:16:01.514Z,59.05
2023-05-22T01:19:34.744Z,59.04
2023-05-22T01:23:32.812Z,58.73
2023-05-22T01:27:14.996Z,59.49
2023-05-22T01:30:45.805Z,59.21
2023-05-22T01:33:55.639Z,59.71
2023-05-22T01:37:02.143Z,59.15
2023-05-22T01:40:08.296Z,58.87
2023-05-22T01:43:16.227Z,59.17
2023-05-22T01:46:21.391Z,59.13
2023-05-22T01:49:26.538Z,59.91
2023-05-22T01:52:42.083Z,59.75
2023-05-22T01:55:59.023Z,59.65
2023-05-22T01:59:16.032Z,60.00
2023-05-22T02:02:25.795Z,59.28
2023-05-22T02:05:35.904Z,59.95
2023-05-22T02:08:43.723Z,60.06
2023-05-22T02:11:49.479Z,59.79
2023-05-22T02:14:54.517Z,59.39
2023-05-22T02:18:02.121Z,60.41
2023-05-22T02:21:08.590Z,59.83
2023-05-22T02:24:12.340Z,60.56
2023-05-22T02:27:16.884Z,60.16
2023-05-22T02:30:20.604Z,60.09
2023-05-22T02:33:29.966Z,60.33
2023-05-22T02:36:34.138Z,60.40
2023-05-22T02:39:38.163Z,60.75
2023-05-22T02:42:42.121Z,60.28
2023-05-22T02:45:46.465Z,60.36
2023-05-22T02:48:51.591Z,61.08
2023-05-22T02:51:56.128Z,60.84
2023-05-22T02:54:59.699Z,61.25
2023-05-22T02:58:03.841Z,60.30
2023-05-22T03:01:09.141Z,60.72
2023-05-22T03:04:15.196Z,61.14
2023-05-22T03:07:20.215Z,60.68
2023-05-22T03:10:24.761Z,60.56
2023-05-22T03:13:28.511Z,61.30
2023-05-22T03:16:34.577Z,60.55
2023-05-22T03:19:40.282Z,60.83
2023-05-22T03:22:44.890Z,61.18
2023-05-22T03:25:49.403Z,61.05
2023-05-22T03:28:54.026Z,61.12
2023-05-22T03:31:59.115Z,60.93
2023-05-22T03:35:05.593Z,60.58
2023-05-22T03:38:09.273Z,60.72
2023-05-22T03:41:13.865Z,60.60
2023-05-22T03:44:17.888Z,61.09
2023-05-22T03:47:22.209Z,61.04
2023-05-22T03:50:27.525Z,60.51
2023-05-22T03:53:31.507Z,61.05
2023-05-22T03:56:36.423Z,60.86
2023-05-22T03:59:40.859Z,60.11
2023-05-22T04:02:47.165Z,60.98
2023-05-22T04:05:52.836Z,60.32
2023-05-22T04:08:56.540Z,60.74
2023-05-22T04:12:01.748Z,59.75
2023-05-22T04:15:06.581Z,59.84
2023-05-22T04:18:11.956Z,59.26
2023-05-22T04:21:17.687Z,59.41
2023-05-22T04:24:23.223Z,58.89
2023-05-22T04:27:29.821Z,59.74
2023-05-22T04:30:34.510Z,59.41
2023-05-22T04:33:38.740Z,59.17
2023-05-22T04:36:45.294Z,58.75
2023-05-22T04:39:52.993Z,58.63
2023-05-22T04:43:00.047Z,58.81
2023-05-22T04:46:04.005Z,58.67
2023-05-22T04:49:08.589Z,58.77
2023-05-22T04:52:14.018Z,58.47
2023-05-22T04:55:19.191Z,58.62
2023-05-22T04:58:23.633Z,58.33
2023-05-22T05:01:29.964Z,58.03
2023-05-22T05:04:36.089Z,57.92
2023-05-22T05:07:44.228Z,57.93
2023-05-22T05:10:48.875Z,57.60
2023-05-22T05:13:53.312Z,57.71
2023-05-22T05:16:57.199Z,57.96
2023-05-22T05:20:01.306Z,57.38
2023-05-22T05:23:06.409Z,56.99
2023-05-22T05:26:10.279Z,57.30
2023-05-22T05:29:14.483Z,57.09
2023-05-22T05:32:26.070Z,57.04
2023-05-22T05:35:50.583Z,56.88
2023-05-22T05:38:58.528Z,56.78
2023-05-22T05:42:02.757Z,56.66
2023-05-22T05:45:07.738Z,56.49
2023-05-22T05:48:12.041Z,56.06
2023-05-22T05:51:20.892Z,55.93
2023-05-22T05:54:27.299Z,56.03
2023-05-22T05:57:34.827Z,55.74
2023-05-22T06:00:40.504Z,55.67
2023-05-22T06:03:44.649Z,55.75
2023-05-22T06:06:52.163Z,55.40
2023-05-22T06:09:57.302Z,55.13
2023-05-22T06:13:23.702Z,55.36
2023-05-22T06:16:28.271Z,55.01
2023-05-22T06:19:32.423Z,54.70
2023-05-22T06:22:36.604Z,54.26
2023-05-22T06:25:41.831Z,54.38
2023-05-22T06:28:46.410Z,53.90
2023-05-22T06:31:50.585Z,54.33
2023-05-22T06:34:56.553Z,53.51
2023-05-22T06:38:02.206Z,53.65
2023-05-22T06:41:08.039Z,53.13
2023-05-22T06:44:12.319Z,52.87
2023-05-22T06:47:17.052Z,52.86
2023-05-22T06:50:21.089Z,52.21
2023-05-22T06:53:25.508Z,52.02
2023-05-22T06:56:30.870Z,52.10
2023-05-22T06:59:39.494Z,51.97
2023-05-22T07:02:43.518Z,51.48
2023-05-22T07:06:13.545Z,51.21
2023-05-22T07:09:17.915Z,50.95
2023-05-22T07:12:26.193Z,50.73
2023-05-22T07:15:31.066Z,50.83
2023-05-22T07:18:40.077Z,50.31
2023-05-22T07:21:43.864Z,50.32
2023-05-22T07:24:49.906Z,50.90
2023-05-22T07:27:58.768Z,49.81
2023-05-22T07:31:22.496Z,49.98
2023-05-22T07:34:32.238Z,49.73
2023-05-22T07:37:36.551Z,49.61
2023-05-22T07:40:40.788Z,49.57
2023-05-22T07:43:46.257Z,49.09
2023-05-22T07:46:54.656Z,48.97
2023-05-22T07:49:59.963Z,48.53
2023-05-22T07:53:04.840Z,48.18
2023-05-22T07:56:13.431Z,47.82
2023-05-22T07:59:21.644Z,47.87
2023-05-22T08:02:25.741Z,47.66
2023-05-22T08:05:29.523Z,47.59
2023-05-22T08:08:33.821Z,47.58
2023-05-22T08:11:40.252Z,47.18
2023-05-22T08:14:45.576Z,46.72
2023-05-22T08:17:49.366Z,46.50
2023-05-22T08:20:54.879Z,46.28
2023-05-22T08:23:58.774Z,46.05
2023-05-22T08:27:02.978Z,46.07
2023-05-22T08:30:09.847Z,45.73
2023-05-22T08:33:13.932Z,45.51
2023-05-22T08:36:17.826Z,45.39
2023-05-22T08:39:21.965Z,45.12
2023-05-22T08:42:26.410Z,44.33
2023-05-22T08:45:34.387Z,44.03
2023-05-22T08:48:40.263Z,44.06
2023-05-22T08:51:48.925Z,43.53
2023-05-22T08:54:57.503Z,43.48
2023-05-22T08:58:02.804Z,43.21
2023-05-22T09:01:10.554Z,43.54
2023-05-22T09:04:15.347Z,43.31
2023-05-22T09:07:22.556Z,43.37
2023-05-22T09:10:26.818Z,42.95
2023-05-22T09:13:32.826Z,43.11
2023-05-22T09:16:47.817Z,42.93
2023-05-22T09:19:51.848Z,42.72
2023-05-22T09:22:56.698Z,42.73
2023-05-22T09:26:03.930Z,42.61
2023-05-22T09:29:08.665Z,42.35
2023-05-22T09:32:17.669Z,42.56
2023-05-22T09:35:22.332Z,42.53
2023-05-22T09:38:31.007Z,42.16
2023-05-22T09:41:39.158Z,41.96
2023-05-22T09:44:44.482Z,41.48
2023-05-22T09:47:52.096Z,41.29
2023-05-22T09:50:56.942Z,40.84
2023-05-22T09:54:06.754Z,40.41
2023-05-22T09:57:18.185Z,40.36
2023-05-22T10:00:24.170Z,40.17
2023-05-22T10:03:30.044Z,39.81
2023-05-22T10:06:35.488Z,39.53
2023-05-22T10:09:43.485Z,39.63
2023-05-22T10:12:54.376Z,39.54
2023-05-22T10:16:00.310Z,39.26
2023-05-22T10:19:07.704Z,39.17
2023-05-22T10:22:20.790Z,39.35
2023-05-22T10:25:25.839Z,38.85
2023-05-22T10:28:43.180Z,38.18
2023-05-22T10:31:59.635Z,38.11
2023-05-22T10:35:21.114Z,37.20
2023-05-22T10:38:54.564Z,36.58
2023-05-22T10:41:58.352Z,37.98
2023-05-22T10:45:03.166Z,37.36
2023-05-22T10:48:10.369Z,37.14
2023-05-22T10:51:20.826Z,37.37
2023-05-22T10:54:42.181Z,37.63
2023-05-22T10:57:46.801Z,37.49
2023-05-22T11:00:50.713Z,37.22
2023-05-22T11:03:57.654Z,37.10
2023-05-22T11:07:09.632Z,36.83
2023-05-22T11:10:13.596Z,36.33
2023-05-22T11:13:19.478Z,36.23
2023-05-22T11:16:23.411Z,36.23
2023-05-22T11:19:27.828Z,35.90
2023-05-22T11:22:42.949Z,35.51
2023-05-22T11:25:46.991Z,35.94
2023-05-22T11:28:53.334Z,35.95
2023-05-22T11:31:58.401Z,36.33
2023-05-22T11:35:04.010Z,36.14
2023-05-22T11:38:10.151Z,36.35
2023-05-22T11:41:14.003Z,36.11
2023-05-22T11:44:17.732Z,36.79
2023-05-22T11:47:21.670Z,36.68
2023-05-22T11:50:43.210Z,37.04
2023-05-22T11:53:49.183Z,37.07
2023-05-22T11:56:52.735Z,37.09
2023-05-22T11:59:56.577Z,36.77
2023-05-22T12:03:00.406Z,36.36
2023-05-22T12:06:06.643Z,36.03
2023-05-22T12:09:12.448Z,35.52
2023-05-22T12:12:17.629Z,35.84
2023-05-22T12:15:21.497Z,35.87
2023-05-22T12:18:25.537Z,35.44
2023-05-22T12:21:29.912Z,35.77
2023-05-22T12:24:40.952Z,35.16
2023-05-22T12:27:46.071Z,34.70
2023-05-22T12:30:54.705Z,34.51
2023-05-22T12:33:58.909Z,34.63
2023-05-22T12:37:03.117Z,34.14
2023-05-22T12:40:10.989Z,33.51
2023-05-22T12:43:14.976Z,33.70
2023-05-22T12:46:18.793Z,33.47
2023-05-22T12:49:22.575Z,33.17
2023-05-22T12:52:26.303Z,33.05
2023-05-22T12:55:31.756Z,32.07
2023-05-22T12:58:35.579Z,31.89
2023-05-22T13:01:39.581Z,30.14
2023-05-22T13:04:43.394Z,26.56
2023-05-22T13:07:47.950Z,25.04
2023-05-22T13:10:52.990Z,23.12
2023-05-22T13:13:59.020Z,22.43
2023-05-22T13:17:02.801Z,20.77
2023-05-22T13:20:10.298Z,19.84
2023-05-22T13:23:14.313Z,19.08
2023-05-22T13:26:19.933Z,17.82
2023-05-22T13:29:23.823Z,17.40
2023-05-22T13:32:27.728Z,17.30
2023-05-22T13:35:31.577Z,16.87
2023-05-22T13:38:35.595Z,17.65
2023-05-22T13:41:40.813Z,18.13
2023-05-22T13:44:45.028Z,19.03
2023-05-22T13:47:49.771Z,19.88
2023-05-22T13:50:53.708Z,19.90
2023-05-22T13:53:57.427Z,20.63
2023-05-22T13:57:03.574Z,20.41
2023-05-22T14:00:09.613Z,19.21
2023-05-22T14:03:17.616Z,18.22
2023-05-22T14:06:21.708Z,17.27
2023-05-22T14:09:25.840Z,17.35
2023-05-22T14:12:30.921Z,16.67
2023-05-22T14:15:34.888Z,17.03
2023-05-22T14:18:38.505Z,17.70
2023-05-22T14:21:42.405Z,16.96
2023-05-22T14:24:46.306Z,16.03
2023-05-22T14:27:51.437Z,16.58
2023-05-22T14:30:55.302Z,16.10
2023-05-22T14:33:59.140Z,15.84
2023-05-22T14:37:03.553Z,15.78
2023-05-22T14:40:09.453Z,14.93
2023-05-22T14:43:14.889Z,15.65
2023-05-22T14:46:18.782Z,15.53
2023-05-22T14:49:22.554Z,15.67
2023-05-22T14:52:26.254Z,16.00
2023-05-22T14:55:30.078Z,16.21
2023-05-22T14:58:35.201Z,16.80
2023-05-22T15:01:39.392Z,17.67
2023-05-22T15:04:44.653Z,18.00
2023-05-22T15:07:51.240Z,18.30
2023-05-22T15:10:55.406Z,19.39
2023-05-22T15:14:00.615Z,19.84
2023-05-22T15:17:04.379Z,20.24
2023-05-22T15:20:09.362Z,21.82
2023-05-22T15:23:13.162Z,21.55
2023-05-22T15:26:17.100Z,22.09
2023-05-22T15:29:22.291Z,22.34
2023-05-22T15:32:30.856Z,22.96
2023-05-22T15:35:34.840Z,22.52
2023-05-22T15:38:41.307Z,23.20
2023-05-22T15:41:54.559Z,23.64
2023-05-22T15:45:10.045Z,23.65
2023-05-22T15:48:16.569Z,24.03
2023-05-22T15:51:20.638Z,23.35
2023-05-22T15:54:24.558Z,23.43
2023-05-22T15:57:29.200Z,24.02
2023-05-22T16:00:38.730Z,24.51
2023-05-22T16:03:42.982Z,24.86
2023-05-22T16:06:46.814Z,24.96
2023-05-22T16:09:54.410Z,25.63
2023-05-22T16:12:58.846Z,26.12
2023-05-22T16:16:06.177Z,26.65
2023-05-22T16:19:10.243Z,26.58
2023-05-22T16:22:14.127Z,28.42
2023-05-22T16:25:19.040Z,27.98
2023-05-22T16:28:23.169Z,28.53
2023-05-22T16:31:28.741Z,29.29
2023-05-22T16:34:39.446Z,29.97
2023-05-22T16:37:43.578Z,30.91
2023-05-22T16:40:47.577Z,30.86
2023-05-22T16:43:51.743Z,31.50
2023-05-22T16:46:56.966Z,31.89
2023-05-22T16:50:01.546Z,32.49
2023-05-22T16:53:05.540Z,32.71
2023-05-22T16:56:09.658Z,33.31
2023-05-22T16:59:13.570Z,33.63
2023-05-22T17:02:19.300Z,33.82
2023-05-22T17:05:24.253Z,34.20
2023-05-22T17:08:28.455Z,34.37
2023-05-22T17:11:32.230Z,34.10
2023-05-22T17:14:36.364Z,34.30
2023-05-22T17:17:41.820Z,34.63
2023-05-22T17:20:45.669Z,34.55
2023-05-22T17:23:49.692Z,34.99
2023-05-22T17:26:53.435Z,34.49
2023-05-22T17:29:57.432Z,34.80
2023-05-22T17:33:03.728Z,35.10
2023-05-22T17:36:07.899Z,35.12
2023-05-22T17:39:11.703Z,35.18
2023-05-22T17:42:15.444Z,35.26
2023-05-22T17:45:19.309Z,35.40
2023-05-22T17:48:27.193Z,36.37
2023-05-22T17:51:31.126Z,36.32
2023-05-22T17:54:35.447Z,37.22
2023-05-22T17:57:39.369Z,37.40
2023-05-22T18:00:43.956Z,38.08
2023-05-22T18:03:49.272Z,38.48
2023-05-22T18:06:53.648Z,38.71
2023-05-22T18:09:57.403Z,39.66
2023-05-22T18:13:01.379Z,39.57
2023-05-22T18:16:05.544Z,39.50
2023-05-22T18:19:11.247Z,40.47
2023-05-22T18:22:15.076Z,40.63
2023-05-22T18:25:19.144Z,41.29
2023-05-22T18:28:26.617Z,41.77
2023-05-22T18:31:30.912Z,42.02
2023-05-22T18:34:37.259Z,42.51
2023-05-22T18:37:42.260Z,42.75
2023-05-22T18:40:47.225Z,43.19
2023-05-22T18:43:51.229Z,43.29
2023-05-22T18:46:54.959Z,43.75
2023-05-22T18:50:00.414Z,44.08
2023-05-22T18:53:04.169Z,44.72
2023-05-22T18:56:08.424Z,44.44
2023-05-22T18:59:12.192Z,44.38
2023-05-22T19:02:17.136Z,45.11
2023-05-22T19:05:22.725Z,45.47
2023-05-22T19:08:26.715Z,45.68
2023-05-22T19:11:31.070Z,45.90
2023-05-22T19:14:35.144Z,45.89
2023-05-22T19:17:39.050Z,46.27
2023-05-22T19:20:45.927Z,46.32
2023-05-22T19:23:51.422Z,46.53
2023-05-22T19:26:55.687Z,46.90
2023-05-22T19:29:59.412Z,47.21
2023-05-22T19:33:05.959Z,47.14
2023-05-22T19:36:13.209Z,48.01
2023-05-22T19:39:17.425Z,47.26
2023-05-22T19:42:21.284Z,47.93
2023-05-22T19:45:26.037Z,47.87
2023-05-22T19:48:31.553Z,48.29
2023-05-22T19:51:37.952Z,48.09
2023-05-22T19:54:41.806Z,48.20
2023-05-22T19:57:46.583Z,48.38
2023-05-22T20:00:51.212Z,48.39
2023-05-22T20:03:56.533Z,48.90
2023-05-22T20:07:02.116Z,49.32
2023-05-22T20:10:07.746Z,49.65
2023-05-22T20:13:11.617Z,49.57
2023-05-22T20:16:16.204Z,49.61
2023-05-22T20:19:20.332Z,50.09
2023-05-22T20:22:25.921Z,50.01
2023-05-22T20:25:29.725Z,50.29
2023-05-22T20:28:34.090Z,50.52
2023-05-22T20:31:37.922Z,50.38
2023-05-22T20:35:09.364Z,50.45
2023-05-22T20:38:14.897Z,50.91
2023-05-22T20:41:19.570Z,50.66
2023-05-22T20:44:24.609Z,50.92
2023-05-22T20:47:28.815Z,51.04
2023-05-22T20:50:36.144Z,51.17
2023-05-22T20:53:43.168Z,51.44
2023-05-22T20:56:46.981Z,51.11
2023-05-22T20:59:50.612Z,51.63
2023-05-22T21:02:55.358Z,51.53
2023-05-22T21:06:01.062Z,52.19
2023-05-22T21:09:06.190Z,52.27
2023-05-22T21:12:10.036Z,52.26
2023-05-22T21:15:13.824Z,52.28
2023-05-22T21:18:19.244Z,52.80
2023-05-22T21:21:23.082Z,52.50
2023-05-22T21:24:28.345Z,52.80
2023-05-22T21:27:32.264Z,53.07
2023-05-22T21:30:36.045Z,53.01
2023-05-22T21:33:39.824Z,53.25
2023-05-22T21:36:43.500Z,53.22
2023-05-22T21:39:48.726Z,53.53
2023-05-22T21:42:53.132Z,52.97
2023-05-22T21:45:56.905Z,53.39
2023-05-22T21:49:03.086Z,53.74
2023-05-22T21:52:07.164Z,54.13
2023-05-22T21:55:12.579Z,54.35
2023-05-22T21:58:16.424Z,54.23
2023-05-22T22:01:20.242Z,54.05
2023-05-22T22:04:24.280Z,54.24
2023-05-22T22:07:28.175Z,54.14
2023-05-22T22:10:33.651Z,54.41
2023-05-22T22:13:37.510Z,54.83
2023-05-22T22:16:41.379Z,54.78
2023-05-22T22:19:46.079Z,54.73
2023-05-22T22:22:49.991Z,55.03
2023-05-22T22:25:55.219Z,55.99
2023-05-22T22:28:59.207Z,54.85
2023-05-22T22:32:03.297Z,55.64
2023-05-22T22:35:08.739Z,55.68
2023-05-22T22:38:12.469Z,56.04
2023-05-22T22:41:17.860Z,55.83
2023-05-22T22:44:21.639Z,56.19
2023-05-22T22:47:26.040Z,56.46
2023-05-22T22:50:29.829Z,56.50
2023-05-22T22:53:33.677Z,56.62
2023-05-22T22:56:39.288Z,56.82
2023-05-22T22:59:44.399Z,57.04
2023-05-22T23:02:48.118Z,57.61
2023-05-22T23:05:52.212Z,57.22
2023-05-22T23:08:57.268Z,57.50
2023-05-22T23:12:02.704Z,57.68
2023-05-22T23:15:09.164Z,57.57
2023-05-22T23:18:14.145Z,57.08
2023-05-22T23:21:17.953Z,58.18
2023-05-22T23:24:22.054Z,57.66
2023-05-22T23:27:27.601Z,58.23
2023-05-22T23:30:31.498Z,57.99
2023-05-22T23:33:35.325Z,58.17
2023-05-22T23:36:39.193Z,58.63
2023-05-22T23:39:42.979Z,58.65
2023-05-22T23:42:48.551Z,58.56
2023-05-22T23:45:52.410Z,58.63
2023-05-22T23:48:57.005Z,58.71
2023-05-22T23:52:01.240Z,59.11
2023-05-22T23:55:06.150Z,59.28
2023-05-22T23:58:11.442Z,59.74
